sensor_id;sensor_type;location;lat;lon;timestamp;pressure;altitude;pressure_sealevel;temperature;humidity
45040;BME280;30778;53.574;7.770;2023-03-16T00:01:41;101884.75;;;-1.01;48.64
45040;BME280;30778;53.574;7.770;2023-03-16T00:04:07;101878.94;;;-0.94;48.48
45040;BME280;30778;53.574;7.770;2023-03-16T00:06:32;101879.72;;;-0.97;47.98
45040;BME280;30778;53.574;7.770;2023-03-16T00:08:58;101872.09;;;-0.95;47.82
45040;BME280;30778;53.574;7.770;2023-03-16T00:11:24;101877.22;;;-0.93;47.81
45040;BME280;30778;53.574;7.770;2023-03-16T00:13:50;101869.69;;;-0.87;47.57
45040;BME280;30778;53.574;7.770;2023-03-16T00:16:16;101878.13;;;-0.91;47.43
45040;BME280;30778;53.574;7.770;2023-03-16T00:18:41;101873.47;;;-1.06;47.63
45040;BME280;30778;53.574;7.770;2023-03-16T00:21:07;101872.19;;;-0.90;46.48
45040;BME280;30778;53.574;7.770;2023-03-16T00:23:34;101872.03;;;-0.97;46.67
45040;BME280;30778;53.574;7.770;2023-03-16T00:26:03;101864.47;;;-0.90;46.51
45040;BME280;30778;53.574;7.770;2023-03-16T00:28:30;101861.66;;;-1.01;46.58
45040;BME280;30778;53.574;7.770;2023-03-16T00:31:03;101852.91;;;-1.08;46.43
45040;BME280;30778;53.574;7.770;2023-03-16T00:33:30;101851.31;;;-1.04;46.21
45040;BME280;30778;53.574;7.770;2023-03-16T00:36:02;101845.22;;;-1.06;46.22
45040;BME280;30778;53.574;7.770;2023-03-16T00:38:32;101848.59;;;-1.09;45.86
45040;BME280;30778;53.574;7.770;2023-03-16T00:40:59;101853.91;;;-1.03;45.73
45040;BME280;30778;53.574;7.770;2023-03-16T00:43:28;101850.59;;;-0.99;45.84
45040;BME280;30778;53.574;7.770;2023-03-16T00:46:00;101856.47;;;-1.03;45.61
45040;BME280;30778;53.574;7.770;2023-03-16T00:48:32;101855.88;;;-0.92;44.62
45040;BME280;30778;53.574;7.770;2023-03-16T00:51:03;101856.69;;;-0.93;44.60
45040;BME280;30778;53.574;7.770;2023-03-16T00:53:34;101854.88;;;-0.99;44.53
45040;BME280;30778;53.574;7.770;2023-03-16T00:56:01;101841.13;;;-1.01;44.20
45040;BME280;30778;53.574;7.770;2023-03-16T00:58:35;101850.59;;;-0.99;44.14
45040;BME280;30778;53.574;7.770;2023-03-16T01:01:09;101844.72;;;-0.93;44.07
45040;BME280;30778;53.574;7.770;2023-03-16T01:03:35;101847.47;;;-0.85;43.80
45040;BME280;30778;53.574;7.770;2023-03-16T01:06:09;101847.44;;;-0.88;43.80
45040;BME280;30778;53.574;7.770;2023-03-16T01:08:36;101846.47;;;-0.92;44.26
45040;BME280;30778;53.574;7.770;2023-03-16T01:11:04;101845.69;;;-0.89;43.77
45040;BME280;30778;53.574;7.770;2023-03-16T01:13:30;101836.47;;;-0.81;43.56
45040;BME280;30778;53.574;7.770;2023-03-16T01:15:57;101843.09;;;-0.89;43.75
45040;BME280;30778;53.574;7.770;2023-03-16T01:18:23;101834.53;;;-0.90;43.31
45040;BME280;30778;53.574;7.770;2023-03-16T01:20:49;101831.06;;;-0.92;43.43
45040;BME280;30778;53.574;7.770;2023-03-16T01:23:16;101820.97;;;-0.86;43.47
45040;BME280;30778;53.574;7.770;2023-03-16T01:25:42;101821.75;;;-0.88;43.51
45040;BME280;30778;53.574;7.770;2023-03-16T01:28:08;101826.91;;;-0.88;43.18
45040;BME280;30778;53.574;7.770;2023-03-16T01:30:34;101823.31;;;-0.95;43.48
45040;BME280;30778;53.574;7.770;2023-03-16T01:33:00;101814.72;;;-0.95;43.50
45040;BME280;30778;53.574;7.770;2023-03-16T01:35:26;101818.19;;;-0.95;43.34
45040;BME280;30778;53.574;7.770;2023-03-16T01:37:52;101805.34;;;-0.95;43.67
45040;BME280;30778;53.574;7.770;2023-03-16T01:40:22;101808.03;;;-0.90;43.45
45040;BME280;30778;53.574;7.770;2023-03-16T01:42:59;101802.00;;;-0.91;43.29
45040;BME280;30778;53.574;7.770;2023-03-16T01:48:32;101792.00;;;-0.79;43.37
45040;BME280;30778;53.574;7.770;2023-03-16T01:51:09;101784.56;;;-0.68;43.14
45040;BME280;30778;53.574;7.770;2023-03-16T01:53:38;101786.22;;;-0.68;43.43
45040;BME280;30778;53.574;7.770;2023-03-16T01:56:07;101782.03;;;-0.65;43.09
45040;BME280;30778;53.574;7.770;2023-03-16T01:58:34;101782.03;;;-0.65;43.25
45040;BME280;30778;53.574;7.770;2023-03-16T02:01:02;101781.28;;;-0.61;43.10
45040;BME280;30778;53.574;7.770;2023-03-16T02:03:29;101777.75;;;-0.66;43.10
45040;BME280;30778;53.574;7.770;2023-03-16T02:06:17;101772.81;;;-0.57;43.05
45040;BME280;30778;53.574;7.770;2023-03-16T02:08:48;101772.81;;;-0.57;42.63
45040;BME280;30778;53.574;7.770;2023-03-16T02:11:15;101767.84;;;-0.47;42.84
45040;BME280;30778;53.574;7.770;2023-03-16T02:13:59;101759.28;;;-0.46;42.30
45040;BME280;30778;53.574;7.770;2023-03-16T02:16:26;101765.28;;;-0.47;42.83
45040;BME280;30778;53.574;7.770;2023-03-16T02:18:52;101762.94;;;-0.35;42.18
45040;BME280;30778;53.574;7.770;2023-03-16T02:21:56;101770.50;;;-0.43;42.46
45040;BME280;30778;53.574;7.770;2023-03-16T02:24:19;101771.53;;;-0.33;42.41
45040;BME280;30778;53.574;7.770;2023-03-16T02:27:12;101762.09;;;-0.36;42.72
45040;BME280;30778;53.574;7.770;2023-03-16T02:30:01;101759.13;;;-0.56;42.69
45040;BME280;30778;53.574;7.770;2023-03-16T02:32:35;101760.63;;;-0.65;42.97
45040;BME280;30778;53.574;7.770;2023-03-16T02:35:01;101764.00;;;-0.68;43.26
45040;BME280;30778;53.574;7.770;2023-03-16T02:37:28;101758.78;;;-0.72;43.27
45040;BME280;30778;53.574;7.770;2023-03-16T02:39:54;101761.94;;;-0.84;43.40
45040;BME280;30778;53.574;7.770;2023-03-16T02:42:24;101757.88;;;-0.74;43.33
45040;BME280;30778;53.574;7.770;2023-03-16T02:44:56;101761.31;;;-0.74;43.30
45040;BME280;30778;53.574;7.770;2023-03-16T02:47:39;101757.88;;;-0.73;43.57
45040;BME280;30778;53.574;7.770;2023-03-16T02:50:06;101753.59;;;-0.74;43.27
45040;BME280;30778;53.574;7.770;2023-03-16T02:52:34;101756.78;;;-0.84;43.57
45040;BME280;30778;53.574;7.770;2023-03-16T02:55:00;101750.00;;;-0.82;43.64
45040;BME280;30778;53.574;7.770;2023-03-16T02:57:26;101753.22;;;-0.91;43.44
45040;BME280;30778;53.574;7.770;2023-03-16T02:59:53;101748.19;;;-0.86;43.33
45040;BME280;30778;53.574;7.770;2023-03-16T03:02:18;101753.31;;;-0.88;43.32
45040;BME280;30778;53.574;7.770;2023-03-16T03:04:44;101748.91;;;-0.93;43.65
45040;BME280;30778;53.574;7.770;2023-03-16T03:07:14;101746.34;;;-0.93;43.34
45040;BME280;30778;53.574;7.770;2023-03-16T03:09:55;101746.53;;;-0.86;43.16
45040;BME280;30778;53.574;7.770;2023-03-16T03:12:21;101744.06;;;-0.80;43.37
45040;BME280;30778;53.574;7.770;2023-03-16T03:14:47;101750.94;;;-0.79;43.39
45040;BME280;30778;53.574;7.770;2023-03-16T03:17:15;101751.09;;;-0.71;43.22
45040;BME280;30778;53.574;7.770;2023-03-16T03:19:41;101746.03;;;-0.68;43.06
45040;BME280;30778;53.574;7.770;2023-03-16T03:22:07;101742.84;;;-0.56;43.04
45040;BME280;30778;53.574;7.770;2023-03-16T03:24:33;101751.59;;;-0.46;42.98
45040;BME280;30778;53.574;7.770;2023-03-16T03:26:59;101756.03;;;-0.39;42.55
45040;BME280;30778;53.574;7.770;2023-03-16T03:29:26;101750.94;;;-0.36;42.64
45040;BME280;30778;53.574;7.770;2023-03-16T03:32:05;101743.50;;;-0.22;42.48
45040;BME280;30778;53.574;7.770;2023-03-16T03:34:31;101745.13;;;-0.27;42.57
45040;BME280;30778;53.574;7.770;2023-03-16T03:36:57;101743.50;;;-0.22;42.49
45040;BME280;30778;53.574;7.770;2023-03-16T03:39:24;101737.47;;;-0.24;42.40
45040;BME280;30778;53.574;7.770;2023-03-16T03:41:50;101747.94;;;-0.14;42.61
45040;BME280;30778;53.574;7.770;2023-03-16T03:44:21;101735.88;;;-0.18;42.46
45040;BME280;30778;53.574;7.770;2023-03-16T03:46:49;101727.22;;;-0.23;42.46
45040;BME280;30778;53.574;7.770;2023-03-16T03:49:16;101729.88;;;-0.18;42.47
45040;BME280;30778;53.574;7.770;2023-03-16T03:51:42;101718.91;;;-0.09;42.16
45040;BME280;30778;53.574;7.770;2023-03-16T03:54:15;101713.63;;;-0.16;42.86
45040;BME280;30778;53.574;7.770;2023-03-16T03:57:09;101711.97;;;-0.14;42.37
45040;BME280;30778;53.574;7.770;2023-03-16T03:59:36;101711.19;;;-0.09;42.58
45040;BME280;30778;53.574;7.770;2023-03-16T04:02:12;101703.31;;;-0.19;42.84
45040;BME280;30778;53.574;7.770;2023-03-16T04:04:43;101706.09;;;-0.08;42.37
45040;BME280;30778;53.574;7.770;2023-03-16T04:07:11;101703.69;;;0.03;42.33
45040;BME280;30778;53.574;7.770;2023-03-16T04:09:38;101706.13;;;-0.05;42.28
45040;BME280;30778;53.574;7.770;2023-03-16T04:12:05;101702.06;;;0.08;41.95
45040;BME280;30778;53.574;7.770;2023-03-16T04:14:32;101693.03;;;-0.19;42.40
45040;BME280;30778;53.574;7.770;2023-03-16T04:17:00;101697.91;;;0.15;41.81
45040;BME280;30778;53.574;7.770;2023-03-16T04:19:26;101690.28;;;0.22;41.76
45040;BME280;30778;53.574;7.770;2023-03-16T04:21:53;101688.31;;;0.06;42.15
45040;BME280;30778;53.574;7.770;2023-03-16T04:24:19;101688.97;;;-0.06;42.08
45040;BME280;30778;53.574;7.770;2023-03-16T04:26:47;101688.25;;;0.03;41.92
45040;BME280;30778;53.574;7.770;2023-03-16T04:29:14;101687.06;;;0.36;41.38
45040;BME280;30778;53.574;7.770;2023-03-16T04:31:43;101682.31;;;0.05;41.60
45040;BME280;30778;53.574;7.770;2023-03-16T04:34:09;101679.13;;;0.20;41.58
45040;BME280;30778;53.574;7.770;2023-03-16T04:36:36;101678.44;;;0.31;41.27
45040;BME280;30778;53.574;7.770;2023-03-16T04:39:04;101679.94;;;0.18;41.67
45040;BME280;30778;53.574;7.770;2023-03-16T04:41:30;101676.50;;;0.19;41.94
45040;BME280;30778;53.574;7.770;2023-03-16T04:44:07;101673.19;;;0.24;41.69
45040;BME280;30778;53.574;7.770;2023-03-16T04:46:33;101667.28;;;0.32;41.73
45040;BME280;30778;53.574;7.770;2023-03-16T04:49:02;101663.50;;;0.08;41.63
45040;BME280;30778;53.574;7.770;2023-03-16T04:51:28;101666.91;;;0.07;42.10
45040;BME280;30778;53.574;7.770;2023-03-16T04:54:03;101655.94;;;0.17;42.04
45040;BME280;30778;53.574;7.770;2023-03-16T04:56:33;101655.25;;;0.29;41.52
45040;BME280;30778;53.574;7.770;2023-03-16T04:59:02;101655.28;;;0.31;41.79
45040;BME280;30778;53.574;7.770;2023-03-16T05:01:33;101641.41;;;0.21;41.78
45040;BME280;30778;53.574;7.770;2023-03-16T05:04:01;101647.44;;;0.21;41.80
45040;BME280;30778;53.574;7.770;2023-03-16T05:06:29;101644.03;;;0.25;41.88
45040;BME280;30778;53.574;7.770;2023-03-16T05:08:58;101645.81;;;0.28;41.63
45040;BME280;30778;53.574;7.770;2023-03-16T05:11:25;101642.06;;;0.06;42.05
45040;BME280;30778;53.574;7.770;2023-03-16T05:13:55;101640.00;;;0.40;41.81
45040;BME280;30778;53.574;7.770;2023-03-16T05:16:22;101632.16;;;0.31;41.54
45040;BME280;30778;53.574;7.770;2023-03-16T05:18:48;101633.13;;;0.40;41.21
45040;BME280;30778;53.574;7.770;2023-03-16T05:21:14;101632.31;;;0.41;41.02
45040;BME280;30778;53.574;7.770;2023-03-16T05:23:51;101631.84;;;0.12;41.94
45040;BME280;30778;53.574;7.770;2023-03-16T05:26:17;101630.53;;;0.39;40.92
45040;BME280;30778;53.574;7.770;2023-03-16T05:28:44;101630.75;;;0.54;40.99
45040;BME280;30778;53.574;7.770;2023-03-16T05:31:13;101622.16;;;0.52;40.80
45040;BME280;30778;53.574;7.770;2023-03-16T05:33:44;101622.56;;;0.20;41.31
45040;BME280;30778;53.574;7.770;2023-03-16T05:36:14;101627.97;;;0.39;40.90
45040;BME280;30778;53.574;7.770;2023-03-16T05:38:42;101623.63;;;0.35;40.66
45040;BME280;30778;53.574;7.770;2023-03-16T05:41:10;101634.13;;;0.50;40.61
45040;BME280;30778;53.574;7.770;2023-03-16T05:43:47;101629.50;;;0.26;40.96
45040;BME280;30778;53.574;7.770;2023-03-16T05:46:14;101633.69;;;0.19;40.75
45040;BME280;30778;53.574;7.770;2023-03-16T05:48:41;101643.72;;;0.04;41.64
45040;BME280;30778;53.574;7.770;2023-03-16T05:51:08;101633.44;;;0.62;40.34
45040;BME280;30778;53.574;7.770;2023-03-16T05:53:34;101636.81;;;0.58;40.35
45040;BME280;30778;53.574;7.770;2023-03-16T05:56:16;101633.22;;;0.46;40.48
45040;BME280;30778;53.574;7.770;2023-03-16T05:58:44;101634.94;;;0.47;40.23
45040;BME280;30778;53.574;7.770;2023-03-16T06:01:09;101632.66;;;0.10;41.03
45040;BME280;30778;53.574;7.770;2023-03-16T06:03:38;101643.97;;;0.19;40.69
45040;BME280;30778;53.574;7.770;2023-03-16T06:06:06;101636.00;;;0.63;40.25
45040;BME280;30778;53.574;7.770;2023-03-16T06:08:39;101635.59;;;0.33;40.49
45040;BME280;30778;53.574;7.770;2023-03-16T06:11:09;101637.59;;;0.54;40.31
45040;BME280;30778;53.574;7.770;2023-03-16T06:13:35;101637.03;;;0.75;40.22
45040;BME280;30778;53.574;7.770;2023-03-16T06:16:01;101642.69;;;0.49;40.23
45040;BME280;30778;53.574;7.770;2023-03-16T06:18:27;101630.53;;;0.37;40.49
45040;BME280;30778;53.574;7.770;2023-03-16T06:20:53;101631.72;;;0.62;40.64
45040;BME280;30778;53.574;7.770;2023-03-16T06:23:19;101626.22;;;0.36;40.34
45040;BME280;30778;53.574;7.770;2023-03-16T06:25:47;101630.25;;;0.81;40.36
45040;BME280;30778;53.574;7.770;2023-03-16T06:28:13;101631.06;;;0.79;40.06
45040;BME280;30778;53.574;7.770;2023-03-16T06:30:39;101632.91;;;0.86;39.60
45040;BME280;30778;53.574;7.770;2023-03-16T06:33:05;101629.22;;;0.67;40.26
45040;BME280;30778;53.574;7.770;2023-03-16T06:35:31;101620.63;;;0.66;40.07
45040;BME280;30778;53.574;7.770;2023-03-16T06:38:09;101632.16;;;0.31;40.68
45040;BME280;30778;53.574;7.770;2023-03-16T06:40:54;101630.31;;;0.87;39.51
45040;BME280;30778;53.574;7.770;2023-03-16T06:43:20;101634.00;;;1.06;39.48
45040;BME280;30778;53.574;7.770;2023-03-16T06:45:46;101626.84;;;0.82;39.93
45040;BME280;30778;53.574;7.770;2023-03-16T06:48:12;101630.19;;;0.75;39.78
45040;BME280;30778;53.574;7.770;2023-03-16T06:50:37;101624.16;;;0.73;39.62
45040;BME280;30778;53.574;7.770;2023-03-16T06:53:03;101625.78;;;0.66;39.77
45040;BME280;30778;53.574;7.770;2023-03-16T06:55:31;101635.97;;;0.57;39.89
45040;BME280;30778;53.574;7.770;2023-03-16T06:57:58;101634.72;;;0.93;39.65
45040;BME280;30778;53.574;7.770;2023-03-16T07:00:24;101621.28;;;1.20;39.13
45040;BME280;30778;53.574;7.770;2023-03-16T07:02:49;101631.97;;;0.79;39.89
45040;BME280;30778;53.574;7.770;2023-03-16T07:05:16;101637.56;;;1.19;39.56
45040;BME280;30778;53.574;7.770;2023-03-16T07:07:42;101635.00;;;1.18;39.21
45040;BME280;30778;53.574;7.770;2023-03-16T07:10:14;101638.84;;;1.54;38.87
45040;BME280;30778;53.574;7.770;2023-03-16T07:12:42;101629.91;;;1.24;39.30
45040;BME280;30778;53.574;7.770;2023-03-16T07:15:09;101633.41;;;1.29;39.18
45040;BME280;30778;53.574;7.770;2023-03-16T07:17:35;101635.94;;;1.24;39.39
45040;BME280;30778;53.574;7.770;2023-03-16T07:20:04;101632.63;;;1.38;38.98
45040;BME280;30778;53.574;7.770;2023-03-16T07:22:31;101632.06;;;1.62;38.55
45040;BME280;30778;53.574;7.770;2023-03-16T07:24:58;101629.91;;;1.24;39.43
45040;BME280;30778;53.574;7.770;2023-03-16T07:27:27;101638.75;;;1.46;39.03
45040;BME280;30778;53.574;7.770;2023-03-16T07:29:55;101643.25;;;1.68;38.82
45040;BME280;30778;53.574;7.770;2023-03-16T07:32:21;101645.00;;;1.69;38.22
45040;BME280;30778;53.574;7.770;2023-03-16T07:34:48;101642.44;;;1.72;38.31
45040;BME280;30778;53.574;7.770;2023-03-16T07:37:14;101637.31;;;1.74;38.81
45040;BME280;30778;53.574;7.770;2023-03-16T07:39:43;101641.69;;;1.83;38.01
45040;BME280;30778;53.574;7.770;2023-03-16T07:42:16;101643.38;;;1.81;38.39
45040;BME280;30778;53.574;7.770;2023-03-16T07:44:57;101646.84;;;1.84;38.03
45040;BME280;30778;53.574;7.770;2023-03-16T07:47:23;101647.50;;;1.62;37.98
45040;BME280;30778;53.574;7.770;2023-03-16T07:49:52;101645.50;;;1.38;38.97
45040;BME280;30778;53.574;7.770;2023-03-16T07:52:18;101652.78;;;1.77;38.98
45040;BME280;30778;53.574;7.770;2023-03-16T07:54:43;101650.06;;;1.60;38.63
45040;BME280;30778;53.574;7.770;2023-03-16T07:57:10;101647.91;;;2.08;38.33
45040;BME280;30778;53.574;7.770;2023-03-16T07:59:41;101643.66;;;1.26;39.08
45040;BME280;30778;53.574;7.770;2023-03-16T08:02:11;101653.91;;;2.07;38.23
45040;BME280;30778;53.574;7.770;2023-03-16T08:04:39;101653.91;;;2.05;38.16
45040;BME280;30778;53.574;7.770;2023-03-16T08:07:08;101650.19;;;1.74;38.37
45040;BME280;30778;53.574;7.770;2023-03-16T08:10:00;101646.31;;;2.22;38.09
45040;BME280;30778;53.574;7.770;2023-03-16T08:12:32;101635.41;;;2.69;37.77
45040;BME280;30778;53.574;7.770;2023-03-16T08:14:58;101644.91;;;2.80;37.35
45040;BME280;30778;53.574;7.770;2023-03-16T08:17:27;101644.94;;;2.83;37.22
45040;BME280;30778;53.574;7.770;2023-03-16T08:19:53;101643.94;;;2.56;38.00
45040;BME280;30778;53.574;7.770;2023-03-16T08:22:20;101643.88;;;2.47;37.24
45040;BME280;30778;53.574;7.770;2023-03-16T08:24:47;101650.00;;;2.67;37.38
45040;BME280;30778;53.574;7.770;2023-03-16T08:27:15;101648.16;;;2.46;37.78
45040;BME280;30778;53.574;7.770;2023-03-16T08:29:45;101648.66;;;1.96;38.47
45040;BME280;30778;53.574;7.770;2023-03-16T08:32:15;101642.84;;;2.20;37.99
45040;BME280;30778;53.574;7.770;2023-03-16T08:34:42;101656.03;;;2.65;37.36
45040;BME280;30778;53.574;7.770;2023-03-16T08:37:09;101653.38;;;2.57;38.24
45040;BME280;30778;53.574;7.770;2023-03-16T08:39:34;101655.75;;;2.23;38.74
45040;BME280;30778;53.574;7.770;2023-03-16T08:42:04;101653.28;;;2.39;38.61
45040;BME280;30778;53.574;7.770;2023-03-16T08:44:54;101657.59;;;2.44;38.27
45040;BME280;30778;53.574;7.770;2023-03-16T08:47:23;101651.97;;;1.81;40.19
45040;BME280;30778;53.574;7.770;2023-03-16T08:49:50;101643.00;;;2.45;38.95
45040;BME280;30778;53.574;7.770;2023-03-16T08:52:17;101646.56;;;2.65;38.83
45040;BME280;30778;53.574;7.770;2023-03-16T08:54:43;101647.38;;;2.60;38.99
45040;BME280;30778;53.574;7.770;2023-03-16T08:57:08;101640.19;;;2.09;39.49
45040;BME280;30778;53.574;7.770;2023-03-16T08:59:35;101638.31;;;1.91;39.57
45040;BME280;30778;53.574;7.770;2023-03-16T09:02:00;101638.63;;;2.31;39.94
45040;BME280;30778;53.574;7.770;2023-03-16T09:04:29;101630.19;;;2.62;39.78
45040;BME280;30778;53.574;7.770;2023-03-16T09:06:55;101641.19;;;2.31;40.38
45040;BME280;30778;53.574;7.770;2023-03-16T09:09:21;101635.53;;;3.03;40.03
45040;BME280;30778;53.574;7.770;2023-03-16T09:11:46;101637.94;;;1.51;41.91
45040;BME280;30778;53.574;7.770;2023-03-16T09:14:14;101633.31;;;2.13;41.84
45040;BME280;30778;53.574;7.770;2023-03-16T09:16:40;101632.41;;;2.05;41.53
45040;BME280;30778;53.574;7.770;2023-03-16T09:19:05;101617.06;;;2.23;41.33
45040;BME280;30778;53.574;7.770;2023-03-16T09:21:31;101625.66;;;2.22;42.04
45040;BME280;30778;53.574;7.770;2023-03-16T09:23:59;101633.63;;;2.61;41.88
45040;BME280;30778;53.574;7.770;2023-03-16T09:26:25;101636.88;;;2.29;42.98
45040;BME280;30778;53.574;7.770;2023-03-16T09:28:50;101630.22;;;2.69;41.71
45040;BME280;30778;53.574;7.770;2023-03-16T09:31:18;101629.28;;;2.49;42.06
45040;BME280;30778;53.574;7.770;2023-03-16T09:33:44;101628.53;;;2.77;41.56
45040;BME280;30778;53.574;7.770;2023-03-16T09:36:10;101626.50;;;2.18;42.89
45040;BME280;30778;53.574;7.770;2023-03-16T09:38:36;101631.38;;;3.36;41.01
45040;BME280;30778;53.574;7.770;2023-03-16T09:46:45;101622.69;;;3.28;40.07
45040;BME280;30778;53.574;7.770;2023-03-16T09:49:17;101617.28;;;2.66;41.14
45040;BME280;30778;53.574;7.770;2023-03-16T09:52:19;101613.97;;;2.92;41.12
45040;BME280;30778;53.574;7.770;2023-03-16T09:54:56;101614.91;;;3.05;41.19
45040;BME280;30778;53.574;7.770;2023-03-16T09:57:27;101605.53;;;3.42;41.33
45040;BME280;30778;53.574;7.770;2023-03-16T09:59:59;101605.50;;;3.30;41.96
45040;BME280;30778;53.574;7.770;2023-03-16T10:05:14;101606.19;;;2.84;42.94
45040;BME280;30778;53.574;7.770;2023-03-16T10:12:58;101605.53;;;3.57;42.25
45040;BME280;30778;53.574;7.770;2023-03-16T10:15:28;101600.34;;;4.07;41.53
45040;BME280;30778;53.574;7.770;2023-03-16T10:18:00;101588.31;;;3.86;42.03
45040;BME280;30778;53.574;7.770;2023-03-16T10:20:30;101596.91;;;4.06;41.39
45040;BME280;30778;53.574;7.770;2023-03-16T10:22:58;101593.47;;;4.09;41.05
45040;BME280;30778;53.574;7.770;2023-03-16T10:25:48;101595.19;;;3.97;41.27
45040;BME280;30778;53.574;7.770;2023-03-16T10:28:18;101597.75;;;3.42;42.61
45040;BME280;30778;53.574;7.770;2023-03-16T10:30:46;101594.31;;;4.09;42.38
45040;BME280;30778;53.574;7.770;2023-03-16T10:33:31;101590.03;;;3.54;42.84
45040;BME280;30778;53.574;7.770;2023-03-16T10:36:32;101590.91;;;4.01;42.12
45040;BME280;30778;53.574;7.770;2023-03-16T10:39:01;101581.28;;;4.57;41.81
45040;BME280;30778;53.574;7.770;2023-03-16T10:41:33;101571.91;;;4.04;42.40
45040;BME280;30778;53.574;7.770;2023-03-16T10:44:14;101574.50;;;3.91;42.83
45040;BME280;30778;53.574;7.770;2023-03-16T10:46:49;101571.81;;;4.45;42.12
45040;BME280;30778;53.574;7.770;2023-03-16T10:49:22;101572.69;;;4.46;42.57
45040;BME280;30778;53.574;7.770;2023-03-16T10:51:52;101577.09;;;4.02;42.87
45040;BME280;30778;53.574;7.770;2023-03-16T10:54:34;101573.66;;;4.08;43.45
45040;BME280;30778;53.574;7.770;2023-03-16T10:57:22;101570.00;;;4.67;42.35
45040;BME280;30778;53.574;7.770;2023-03-16T10:59:49;101569.34;;;3.64;45.06
45040;BME280;30778;53.574;7.770;2023-03-16T11:02:24;101567.63;;;3.96;44.00
45040;BME280;30778;53.574;7.770;2023-03-16T11:04:54;101572.78;;;3.98;43.88
45040;BME280;30778;53.574;7.770;2023-03-16T11:07:21;101567.53;;;4.33;44.37
45040;BME280;30778;53.574;7.770;2023-03-16T11:09:54;101555.16;;;5.03;43.27
45040;BME280;30778;53.574;7.770;2023-03-16T11:12:26;101558.66;;;5.02;43.72
45040;BME280;30778;53.574;7.770;2023-03-16T11:14:53;101539.94;;;4.37;45.32
45040;BME280;30778;53.574;7.770;2023-03-16T11:17:36;101543.97;;;4.98;44.01
45040;BME280;30778;53.574;7.770;2023-03-16T11:20:08;101544.81;;;5.06;44.03
45040;BME280;30778;53.574;7.770;2023-03-16T11:22:39;101551.16;;;5.78;43.26
45040;BME280;30778;53.574;7.770;2023-03-16T11:27:41;101536.19;;;5.01;42.98
45040;BME280;30778;53.574;7.770;2023-03-16T11:32:50;101540.31;;;5.31;44.80
45040;BME280;30778;53.574;7.770;2023-03-16T11:38:28;101522.19;;;6.19;42.45
45040;BME280;30778;53.574;7.770;2023-03-16T11:40:59;101526.63;;;5.08;44.37
45040;BME280;30778;53.574;7.770;2023-03-16T11:55:15;101505.56;;;3.73;48.31
45040;BME280;30778;53.574;7.770;2023-03-16T12:01:07;101508.88;;;4.35;47.82
45040;BME280;30778;53.574;7.770;2023-03-16T12:14:42;101501.22;;;3.91;49.53
45040;BME280;30778;53.574;7.770;2023-03-16T12:17:19;101512.50;;;3.70;50.43
45040;BME280;30778;53.574;7.770;2023-03-16T12:22:45;101505.59;;;3.32;51.62
45040;BME280;30778;53.574;7.770;2023-03-16T12:25:22;101503.00;;;3.69;51.06
45040;BME280;30778;53.574;7.770;2023-03-16T12:27:57;101497.63;;;4.39;49.39
45040;BME280;30778;53.574;7.770;2023-03-16T12:30:41;101486.66;;;3.45;51.41
45040;BME280;30778;53.574;7.770;2023-03-16T12:35:48;101482.34;;;3.52;50.74
45040;BME280;30778;53.574;7.770;2023-03-16T12:38:34;101475.41;;;3.26;51.72
45040;BME280;30778;53.574;7.770;2023-03-16T12:43:51;101476.31;;;3.33;51.75
45040;BME280;30778;53.574;7.770;2023-03-16T12:49:05;101474.56;;;3.66;51.48
45040;BME280;30778;53.574;7.770;2023-03-16T12:51:36;101471.97;;;3.13;53.52
45040;BME280;30778;53.574;7.770;2023-03-16T12:54:03;101481.47;;;3.42;53.06
45040;BME280;30778;53.574;7.770;2023-03-16T12:56:33;101472.00;;;3.35;53.44
45040;BME280;30778;53.574;7.770;2023-03-16T12:59:03;101473.72;;;3.16;53.47
45040;BME280;30778;53.574;7.770;2023-03-16T13:01:41;101469.38;;;3.13;53.95
45040;BME280;30778;53.574;7.770;2023-03-16T13:04:11;101483.16;;;3.12;53.78
45040;BME280;30778;53.574;7.770;2023-03-16T13:06:42;101472.81;;;3.15;53.85
45040;BME280;30778;53.574;7.770;2023-03-16T13:09:10;101467.66;;;2.88;54.17
45040;BME280;30778;53.574;7.770;2023-03-16T13:11:45;101468.47;;;2.73;54.86
45040;BME280;30778;53.574;7.770;2023-03-16T13:14:32;101469.22;;;2.40;55.55
45040;BME280;30778;53.574;7.770;2023-03-16T13:19:41;101462.31;;;2.29;56.31
45040;BME280;30778;53.574;7.770;2023-03-16T13:24:53;101440.03;;;2.51;55.96
45040;BME280;30778;53.574;7.770;2023-03-16T13:27:22;101436.56;;;2.51;55.98
45040;BME280;30778;53.574;7.770;2023-03-16T13:29:57;101428.84;;;2.51;55.84
45040;BME280;30778;53.574;7.770;2023-03-16T13:32:24;101419.41;;;2.68;55.65
45040;BME280;30778;53.574;7.770;2023-03-16T13:34:57;101409.94;;;2.61;55.80
45040;BME280;30778;53.574;7.770;2023-03-16T13:37:23;101401.38;;;2.76;55.66
45040;BME280;30778;53.574;7.770;2023-03-16T13:39:58;101391.06;;;2.87;55.47
45040;BME280;30778;53.574;7.770;2023-03-16T13:42:25;101394.50;;;2.83;54.99
45040;BME280;30778;53.574;7.770;2023-03-16T13:44:54;101377.25;;;2.49;55.45
45040;BME280;30778;53.574;7.770;2023-03-16T13:47:21;101387.53;;;2.32;55.80
45040;BME280;30778;53.574;7.770;2023-03-16T13:49:57;101389.28;;;2.52;55.22
45040;BME280;30778;53.574;7.770;2023-03-16T13:52:27;101388.44;;;2.70;54.89
45040;BME280;30778;53.574;7.770;2023-03-16T13:54:54;101378.97;;;2.70;54.68
45040;BME280;30778;53.574;7.770;2023-03-16T13:57:26;101364.38;;;2.60;54.72
45040;BME280;30778;53.574;7.770;2023-03-16T13:59:53;101365.19;;;2.54;54.35
45040;BME280;30778;53.574;7.770;2023-03-16T14:02:25;101360.06;;;2.85;53.94
45040;BME280;30778;53.574;7.770;2023-03-16T14:04:50;101358.28;;;3.24;53.61
45040;BME280;30778;53.574;7.770;2023-03-16T14:07:18;101358.31;;;3.23;52.59
45040;BME280;30778;53.574;7.770;2023-03-16T14:09:45;101354.00;;;3.31;52.32
45040;BME280;30778;53.574;7.770;2023-03-16T14:12:18;101350.53;;;3.56;51.54
45040;BME280;30778;53.574;7.770;2023-03-16T14:14:49;101347.94;;;3.52;50.68
45040;BME280;30778;53.574;7.770;2023-03-16T14:17:20;101342.75;;;3.59;51.04
45040;BME280;30778;53.574;7.770;2023-03-16T14:19:48;101331.41;;;3.94;50.37